Time;durP1;ratioP1;P1;durP2;ratioP2;P2;SDS_P1;SDS_P2;PMS_P1;PMS_P2;Temp;Humidity;BMP_temperature;BMP_pressure;BME280_temperature;BME280_humidity;BME280_pressure;Samples;Min_cycle;Max_cycle;Signal;HPM_P1;HPM_P2
2022/01/22 00:02:06;;;;;;;14.00;5.77;;;;;;;-3.89;100.00;99070.44;1739144;82;21093;-70
2022/01/22 00:04:35;;;;;;;15.23;6.33;;;;;;;-3.88;100.00;99063.34;1643304;86;21543;-70
2022/01/22 00:07:04;;;;;;;15.13;5.63;;;;;;;-3.89;100.00;99057.70;1646842;86;21078;-69
2022/01/22 00:09:38;;;;;;;16.77;6.20;;;;;;;-3.88;100.00;99058.93;1647602;85;21113;-68
2022/01/22 00:12:06;;;;;;;15.03;5.97;;;;;;;-3.87;100.00;99058.45;1656673;85;21058;-69
2022/01/22 00:14:34;;;;;;;14.83;6.50;;;;;;;-3.85;100.00;99058.70;1679374;85;21091;-70
2022/01/22 00:17:01;;;;;;;13.10;5.43;;;;;;;-3.84;100.00;99051.64;1679641;85;21570;-69
2022/01/22 00:19:28;;;;;;;13.97;5.90;;;;;;;-3.85;100.00;99056.06;1679688;85;21042;-69
2022/01/22 00:21:56;;;;;;;14.83;5.87;;;;;;;-3.86;100.00;99046.91;1679346;85;21118;-71
2022/01/22 00:24:23;;;;;;;15.93;6.30;;;;;;;-3.87;100.00;99042.11;1679426;85;21022;-68
2022/01/22 00:26:50;;;;;;;12.30;5.60;;;;;;;-3.85;100.00;99042.02;1679484;85;21048;-70
2022/01/22 00:29:17;;;;;;;11.77;5.10;;;;;;;-3.87;100.00;99037.31;1679556;85;21166;-69
2022/01/22 00:31:44;;;;;;;16.00;6.60;;;;;;;-3.89;100.00;99039.22;1679295;85;21050;-69
2022/01/22 00:34:11;;;;;;;16.83;6.13;;;;;;;-3.90;100.00;99034.39;1679619;85;21093;-69
2022/01/22 00:36:46;;;;;;;17.83;5.90;;;;;;;-3.90;100.00;99033.55;1679550;85;21614;-69
2022/01/22 00:39:14;;;;;;;18.27;6.13;;;;;;;-3.88;100.00;99024.59;1679532;85;21631;-69
2022/01/22 00:41:41;;;;;;;15.93;6.10;;;;;;;-3.89;100.00;99023.38;1679576;85;21047;-68
2022/01/22 00:44:08;;;;;;;18.37;6.97;;;;;;;-3.89;100.00;99026.85;1679880;85;21600;-69
2022/01/22 00:46:36;;;;;;;19.57;6.20;;;;;;;-3.87;100.00;99017.50;1679246;85;21098;-69
2022/01/22 00:49:03;;;;;;;16.33;6.60;;;;;;;-3.89;100.00;99022.05;1679402;85;21546;-70
2022/01/22 00:51:30;;;;;;;17.77;6.00;;;;;;;-3.91;100.00;99022.16;1679324;85;21125;-70
2022/01/22 00:53:57;;;;;;;12.90;6.10;;;;;;;-3.93;100.00;99021.87;1679544;85;21547;-69
2022/01/22 00:56:24;;;;;;;14.10;5.70;;;;;;;-3.93;100.00;99025.37;1657142;85;21046;-70
2022/01/22 00:58:52;;;;;;;15.07;5.83;;;;;;;-3.93;100.00;99026.70;1647148;87;21074;-69
2022/01/22 01:01:26;;;;;;;15.17;6.40;;;;;;;-3.95;100.00;99029.05;1719249;80;21036;-70
2022/01/22 01:03:57;;;;;;;16.87;6.23;;;;;;;-3.97;100.00;99019.08;1788069;80;20993;-70
2022/01/22 01:06:23;;;;;;;16.40;6.57;;;;;;;-3.98;100.00;99020.02;1787980;80;21470;-69
2022/01/22 01:08:50;;;;;;;19.07;7.37;;;;;;;-4.02;100.00;99021.56;1787412;80;21037;-70
2022/01/22 01:11:18;;;;;;;14.10;6.37;;;;;;;-4.05;100.00;99027.05;1787643;79;21483;-71
2022/01/22 01:13:49;;;;;;;13.63;6.50;;;;;;;-4.10;100.00;99026.50;1787907;80;21033;-69
2022/01/22 01:16:42;;;;;;;15.30;5.97;;;;;;;-4.16;100.00;99033.53;1757606;80;21005;-70
2022/01/22 01:35:08;;;;;;;19.33;7.60;;;;;;;-4.60;100.00;99051.81;1787720;80;21020;-69
2022/01/22 01:37:35;;;;;;;18.23;7.07;;;;;;;-4.68;100.00;99050.97;1787983;80;21001;-69
2022/01/22 01:40:06;;;;;;;17.33;6.90;;;;;;;-4.73;100.00;99043.83;1787903;80;21068;-69
2022/01/22 01:45:05;;;;;;;23.30;7.93;;;;;;;-4.84;100.00;99047.63;1646046;86;21094;-70
2022/01/22 01:47:50;;;;;;;17.33;7.30;;;;;;;-4.89;100.00;99054.98;1645679;87;21054;-69
2022/01/22 01:50:17;;;;;;;18.00;6.87;;;;;;;-4.95;100.00;99053.59;1645625;87;21532;-69
2022/01/22 01:53:02;;;;;;;16.97;6.37;;;;;;;-5.01;100.00;99057.47;1645398;87;21087;-69
2022/01/22 01:55:22;;;;;;;16.13;7.00;;;;;;;-5.07;100.00;99057.84;1645543;87;21036;-69
2022/01/22 01:57:47;;;;;;;17.93;7.07;;;;;;;-5.09;100.00;99056.25;1627060;87;21023;-69
2022/01/22 02:00:24;;;;;;;17.27;7.00;;;;;;;-5.13;100.00;99054.28;1651555;85;21101;-69
2022/01/22 02:02:58;;;;;;;18.40;7.10;;;;;;;-5.20;100.00;99060.41;1659586;85;21066;-69
2022/01/22 02:05:26;;;;;;;20.50;7.90;;;;;;;-5.27;100.00;99063.52;1659498;86;21061;-69
2022/01/22 02:07:55;;;;;;;21.50;7.87;;;;;;;-5.32;100.00;99070.86;1660106;86;21046;-69
2022/01/22 02:10:28;;;;;;;20.43;7.50;;;;;;;-5.38;100.00;99074.25;1659844;85;21046;-70
2022/01/22 02:23:52;;;;;;;16.57;6.10;;;;;;;-5.73;100.00;99077.70;1592499;90;21556;-69
2022/01/22 02:26:19;;;;;;;12.87;6.07;;;;;;;-5.80;100.00;99086.42;1575315;91;21112;-68
2022/01/22 02:28:50;;;;;;;15.13;6.23;;;;;;;-5.85;100.00;99085.02;1592298;90;21608;-68
2022/01/22 02:31:39;;;;;;;15.70;5.77;;;;;;;-5.92;100.00;99085.36;1575231;91;21349;-68
2022/01/22 02:39:23;;;;;;;13.33;5.43;;;;;;;-6.08;100.00;99087.23;1481375;97;21154;-69
2022/01/22 02:41:50;;;;;;;11.50;5.72;;;;;;;-6.10;100.00;99089.11;1527984;91;21055;-69
2022/01/22 02:46:48;;;;;;;13.20;5.90;;;;;;;-6.19;100.00;99089.66;1600324;90;21128;-68
2022/01/22 02:49:15;;;;;;;14.67;6.10;;;;;;;-6.24;100.00;99085.13;1600252;90;21127;-69
2022/01/22 02:51:43;;;;;;;12.83;5.20;;;;;;;-6.30;100.00;99084.53;1600204;90;21119;-70
2022/01/22 02:54:10;;;;;;;10.40;5.07;;;;;;;-6.31;100.00;99077.56;1600376;90;21574;-70
2022/01/22 02:56:37;;;;;;;11.63;5.10;;;;;;;-6.33;100.00;99070.70;1579984;90;21075;-69
2022/01/22 02:59:05;;;;;;;14.23;6.00;;;;;;;-6.36;100.00;99066.45;1574035;91;21039;-69
2022/01/22 03:01:32;;;;;;;18.90;7.07;;;;;;;-6.38;100.00;99064.86;1559405;89;21154;-68
2022/01/22 03:03:59;;;;;;;14.87;5.93;;;;;;;-6.37;100.00;99078.41;1557067;91;21683;-69
2022/01/22 03:06:26;;;;;;;14.67;6.10;;;;;;;-6.36;100.00;99066.93;1557001;92;21110;-70
2022/01/22 03:08:53;;;;;;;13.80;5.60;;;;;;;-6.39;100.00;99065.78;1557025;92;21150;-69
2022/01/22 03:11:24;;;;;;;13.00;5.40;;;;;;;-6.40;100.00;99072.00;1556869;92;21029;-69
2022/01/22 03:16:52;;;;;;;19.23;7.90;;;;;;;-6.43;100.00;99075.63;1625112;86;21639;-69
2022/01/22 03:19:12;;;;;;;21.20;10.07;;;;;;;-6.45;100.00;99083.25;1669060;86;21076;-69
2022/01/22 03:21:40;;;;;;;23.57;11.23;;;;;;;-6.47;100.00;99083.80;1672380;86;21057;-69
2022/01/22 03:29:38;;;;;;;16.40;6.40;;;;;;;-6.57;100.00;99073.81;1664568;85;21579;-69
2022/01/22 03:32:09;;;;;;;13.77;5.90;;;;;;;-6.61;100.00;99074.89;1763739;80;20970;-70
2022/01/22 03:34:43;;;;;;;13.05;5.33;;;;;;;-6.64;100.00;99083.42;1695593;84;21023;-68
2022/01/22 03:37:06;;;;;;;11.70;5.67;;;;;;;-6.71;100.00;99078.97;1668719;85;21088;-69
2022/01/22 03:39:34;;;;;;;13.40;5.73;;;;;;;-6.79;100.00;99083.35;1694990;85;21038;-70
2022/01/22 03:42:01;;;;;;;14.17;5.70;;;;;;;-6.84;100.00;99080.60;1695618;85;21035;-68
2022/01/22 03:44:30;;;;;;;12.87;5.30;;;;;;;-6.92;100.00;99089.77;1695345;85;20996;-69
2022/01/22 03:46:58;;;;;;;12.53;5.83;;;;;;;-6.95;100.00;99095.17;1694591;85;21106;-69
2022/01/22 03:49:25;;;;;;;16.73;6.37;;;;;;;-7.01;100.00;99086.33;1672200;85;21502;-70
2022/01/22 03:51:52;;;;;;;13.83;6.00;;;;;;;-7.06;100.00;99093.13;1695701;85;21058;-68
2022/01/22 03:54:19;;;;;;;14.47;6.03;;;;;;;-7.10;100.00;99092.93;1695490;85;21030;-69
2022/01/22 03:56:47;;;;;;;14.27;5.80;;;;;;;-7.13;100.00;99095.71;1706755;84;21107;-69
2022/01/22 03:59:19;;;;;;;10.38;5.12;;;;;;;-7.16;100.00;99101.13;1596483;90;21127;-69
2022/01/22 04:02:36;;;;;;;14.30;5.77;;;;;;;-7.18;100.00;99108.25;1584825;90;21565;-69
2022/01/22 04:04:44;;;;;;;16.47;6.63;;;;;;;-7.21;100.00;99109.72;1584198;90;21212;-68
2022/01/22 04:07:47;;;;;;;12.50;6.10;;;;;;;-7.25;100.00;99122.16;1584464;89;21049;-70
2022/01/22 04:09:52;;;;;;;15.00;6.50;;;;;;;-7.23;100.00;99118.63;1608716;89;21903;-69
2022/01/22 04:12:25;;;;;;;16.43;6.80;;;;;;;-7.21;100.00;99120.70;1611139;89;21066;-68
2022/01/22 04:14:54;;;;;;;14.27;6.13;;;;;;;-7.22;100.00;99118.55;1608325;89;21049;-69
2022/01/22 04:17:24;;;;;;;14.70;6.50;;;;;;;-7.18;100.00;99110.03;1608157;89;21097;-69
2022/01/22 04:25:21;;;;;;;9.57;5.67;;;;;;;-7.08;100.00;99104.20;1611540;89;21085;-69
2022/01/22 04:27:45;;;;;;;12.33;6.00;;;;;;;-7.05;100.00;99096.60;1590004;89;21562;-68
2022/01/22 04:30:12;;;;;;;15.30;6.03;;;;;;;-7.03;100.00;99103.93;1610999;89;21026;-69
2022/01/22 04:32:40;;;;;;;15.63;5.80;;;;;;;-7.03;100.00;99109.19;1611246;89;21110;-70
2022/01/22 04:35:09;;;;;;;13.03;5.37;;;;;;;-7.01;100.00;99107.35;1611501;89;21562;-68
2022/01/22 04:37:36;;;;;;;13.20;5.80;;;;;;;-6.99;100.00;99109.87;1634385;86;21064;-70
2022/01/22 04:40:05;;;;;;;13.77;6.67;;;;;;;-6.99;100.00;99113.81;1646006;86;21069;-69
2022/01/22 04:42:35;;;;;;;13.90;6.13;;;;;;;-7.00;100.00;99109.03;1668505;86;21044;-69
2022/01/22 04:45:14;;;;;;;16.37;6.40;;;;;;;-6.99;100.00;99117.31;1668623;86;21057;-69
2022/01/22 04:48:10;;;;;;;13.17;6.33;;;;;;;-7.00;100.00;99108.19;1665131;86;21049;-69
2022/01/22 04:55:38;;;;;;;15.63;6.43;;;;;;;-7.04;100.00;99091.73;1674184;85;21064;-71
2022/01/22 04:58:07;;;;;;;14.57;6.03;;;;;;;-7.07;100.00;99088.80;1740621;82;21108;-70
2022/01/22 05:00:39;;;;;;;14.27;5.87;;;;;;;-7.07;100.00;99094.05;1752873;80;21576;-71
2022/01/22 05:03:06;;;;;;;13.90;6.80;;;;;;;-7.07;100.00;99095.36;1786573;80;21015;-72
2022/01/22 05:05:47;;;;;;;17.07;7.50;;;;;;;-7.07;100.00;99094.05;1717137;83;21046;-71
2022/01/22 05:08:35;;;;;;;16.17;6.53;;;;;;;-7.12;100.00;99089.98;1716073;84;21124;-71
2022/01/22 05:11:09;;;;;;;12.30;5.33;;;;;;;-7.14;100.00;99085.28;1754732;82;21018;-70
2022/01/22 05:13:38;;;;;;;10.73;5.40;;;;;;;-7.15;100.00;99096.70;1754820;82;21038;-71
2022/01/22 05:16:07;;;;;;;14.13;5.70;;;;;;;-7.18;100.00;99095.58;1754790;82;21004;-71
2022/01/22 05:18:41;;;;;;;19.03;8.20;;;;;;;-7.23;100.00;99089.72;1754978;82;21025;-70
2022/01/22 05:21:09;;;;;;;16.37;7.37;;;;;;;-7.25;100.00;99095.89;1754890;82;21514;-71
2022/01/22 05:23:35;;;;;;;14.60;6.83;;;;;;;-7.27;100.00;99095.61;1733427;82;21078;-72
2022/01/22 05:26:09;;;;;;;16.57;7.30;;;;;;;-7.31;100.00;99104.12;1754967;82;21053;-71
2022/01/22 05:31:54;;;;;;;14.47;6.60;;;;;;;-7.36;100.00;99096.95;1754909;82;21062;-70
2022/01/22 05:37:11;;;;;;;15.17;6.23;;;;;;;-7.39;100.00;99104.98;1715507;83;21036;-71
2022/01/22 05:39:39;;;;;;;12.47;6.23;;;;;;;-7.40;100.00;99098.05;1719231;83;21052;-70
2022/01/22 05:42:09;;;;;;;12.47;5.73;;;;;;;-7.41;100.00;99104.22;1713847;83;21052;-69
2022/01/22 05:44:36;;;;;;;12.27;5.67;;;;;;;-7.41;100.00;99105.53;1686403;84;21071;-68
2022/01/22 05:47:06;;;;;;;15.37;7.27;;;;;;;-7.41;100.00;99106.00;1711362;83;21012;-68
2022/01/22 05:49:38;;;;;;;12.97;6.97;;;;;;;-7.44;100.00;99104.37;1711495;84;21125;-69
2022/01/22 05:52:08;;;;;;;15.33;6.80;;;;;;;-7.45;100.00;99102.22;1711482;84;21624;-69
2022/01/22 06:00:09;;;;;;;14.50;6.37;;;;;;;-7.39;100.00;99093.63;1684366;85;21102;-69
2022/01/22 06:02:49;;;;;;;15.17;5.93;;;;;;;-7.37;100.00;99089.98;1684121;85;21055;-68
2022/01/22 06:05:18;;;;;;;14.27;6.07;;;;;;;-7.29;100.00;99094.37;1684294;85;21051;-70
2022/01/22 06:07:45;;;;;;;12.87;6.40;;;;;;;-7.16;100.00;99083.20;1691919;82;20981;-69
2022/01/22 06:10:17;;;;;;;15.53;6.20;;;;;;;-6.99;100.00;99086.22;1730050;80;21482;-68
2022/01/22 06:15:13;;;;;;;13.80;6.77;;;;;;;-6.86;100.00;99067.54;1773873;80;21000;-68
2022/01/22 06:17:55;;;;;;;12.18;5.75;;;;;;;-6.91;100.00;99065.16;1765510;80;21021;-69
2022/01/22 06:20:25;;;;;;;13.40;6.10;;;;;;;-6.93;100.00;99077.53;1743572;80;20990;-65
2022/01/22 06:22:53;;;;;;;14.93;6.17;;;;;;;-6.94;100.00;99083.75;1771527;80;21057;-71
2022/01/22 06:25:21;;;;;;;11.33;5.97;;;;;;;-6.93;100.00;99084.58;1773190;80;20969;-69
2022/01/22 06:27:50;;;;;;;13.23;6.00;;;;;;;-6.97;100.00;99081.27;1738480;80;21012;-70
2022/01/22 06:30:17;;;;;;;13.17;6.13;;;;;;;-6.97;100.00;99090.95;1734875;82;20974;-70
2022/01/22 06:32:46;;;;;;;14.80;6.37;;;;;;;-6.96;100.00;99092.63;1773495;80;21016;-70
2022/01/22 06:35:13;;;;;;;12.50;6.37;;;;;;;-6.94;100.00;99096.88;1775860;80;21000;-69
2022/01/22 06:37:43;;;;;;;16.23;7.40;;;;;;;-6.94;100.00;99103.45;1743779;80;21020;-68
2022/01/22 06:43:05;;;;;;;22.07;9.73;;;;;;;-6.83;100.00;99104.18;1773288;80;20978;-69
2022/01/22 06:45:41;;;;;;;22.03;10.33;;;;;;;-6.75;100.00;99093.23;1765707;80;20985;-73
2022/01/22 06:48:17;;;;;;;16.53;8.03;;;;;;;-6.70;100.00;99095.14;1673158;85;21080;-69
2022/01/22 06:50:49;;;;;;;19.10;7.43;;;;;;;-6.62;100.00;99098.64;1632307;86;21554;-68
2022/01/22 06:53:17;;;;;;;14.67;7.30;;;;;;;-6.52;100.00;99095.89;1653654;86;21005;-71
2022/01/22 06:55:54;;;;;;;16.70;6.80;;;;;;;-6.46;100.00;99100.82;1657692;86;21002;-69
2022/01/22 06:58:16;;;;;;;16.73;6.87;;;;;;;-6.42;100.00;99098.38;1591350;90;21498;-69
2022/01/22 07:00:45;;;;;;;15.47;6.97;;;;;;;-6.37;100.00;99095.03;1604466;88;21223;-68
2022/01/22 07:03:23;;;;;;;17.57;8.10;;;;;;;-6.28;100.00;99095.42;1578100;91;21058;-70
2022/01/22 07:05:52;;;;;;;18.23;7.17;;;;;;;-6.22;100.00;99102.50;1574514;91;21092;-70
2022/01/22 07:08:19;;;;;;;15.73;6.90;;;;;;;-6.13;100.00;99086.17;1574284;91;21064;-69
2022/01/22 07:10:50;;;;;;;14.17;6.97;;;;;;;-6.02;100.00;99093.47;1574303;91;21019;-69
2022/01/22 07:13:17;;;;;;;17.07;8.07;;;;;;;-5.94;100.00;99097.77;1544737;92;21178;-69
2022/01/22 07:15:45;;;;;;;17.47;7.83;;;;;;;-5.80;100.00;99096.96;1551448;91;21120;-69
2022/01/22 07:18:16;;;;;;;18.77;7.53;;;;;;;-5.66;100.00;99094.83;1554727;92;21074;-69
2022/01/22 07:20:44;;;;;;;21.17;9.03;;;;;;;-5.50;100.00;99096.07;1555507;92;21073;-68
2022/01/22 07:25:44;;;;;;;19.70;7.70;;;;;;;-5.28;100.00;99103.98;1568957;91;21089;-69
2022/01/22 07:28:13;;;;;;;18.83;7.50;;;;;;;-5.19;100.00;99099.01;1568440;91;21024;-69
2022/01/22 07:30:40;;;;;;;18.50;9.20;;;;;;;-5.12;100.00;99097.30;1568630;91;21519;-68
2022/01/22 07:33:09;;;;;;;22.67;9.77;;;;;;;-5.06;100.00;99093.81;1568404;91;21114;-69
2022/01/22 07:35:39;;;;;;;17.83;7.57;;;;;;;-4.95;100.00;99101.05;1568641;91;21083;-68
2022/01/22 07:38:10;;;;;;;18.27;7.87;;;;;;;-4.78;100.00;99107.89;1548653;91;21092;-69
2022/01/22 07:40:39;;;;;;;17.60;7.77;;;;;;;-4.55;100.00;99110.86;1568575;91;21105;-70
2022/01/22 07:43:08;;;;;;;13.17;6.87;;;;;;;-4.37;100.00;99125.53;1548454;91;21091;-68
2022/01/22 07:45:48;;;;;;;18.83;7.97;;;;;;;-4.26;100.00;99126.99;1621470;87;21038;-69
2022/01/22 07:48:17;;;;;;;17.13;7.40;;;;;;;-4.10;100.00;99128.64;1632300;87;21097;-68
2022/01/22 07:51:02;;;;;;;17.97;8.50;;;;;;;-3.90;100.00;99133.92;1654347;86;21604;-69
2022/01/22 07:53:31;;;;;;;17.70;8.43;;;;;;;-3.66;100.00;99140.21;1654328;87;21094;-69
2022/01/22 07:56:01;;;;;;;17.37;6.73;;;;;;;-3.55;100.00;99146.58;1619034;88;21557;-69
2022/01/22 07:58:28;;;;;;;17.77;8.13;;;;;;;-3.44;100.00;99150.16;1631838;87;21050;-69
2022/01/22 08:00:57;;;;;;;19.20;7.67;;;;;;;-3.38;100.00;99154.22;1646082;87;21550;-70
2022/01/22 08:03:28;;;;;;;15.70;7.90;;;;;;;-3.19;100.00;99157.75;1601662;87;21559;-68
2022/01/22 08:06:15;;;;;;;24.23;11.70;;;;;;;-3.06;100.00;99170.52;1643819;87;21041;-69
2022/01/22 08:09:01;;;;;;;21.37;10.00;;;;;;;-2.86;100.00;99173.57;1637790;88;21081;-69
2022/01/22 08:11:49;;;;;;;18.77;9.03;;;;;;;-2.76;100.00;99181.24;1673097;84;21045;-70
2022/01/22 08:14:18;;;;;;;15.93;7.60;;;;;;;-2.72;100.00;99199.07;1672748;86;21115;-70
2022/01/22 08:16:49;;;;;;;40.53;18.40;;;;;;;-2.75;100.00;99217.31;1650426;86;21029;-69
2022/01/22 08:19:19;;;;;;;23.43;10.53;;;;;;;-2.68;100.00;99229.16;1667410;84;21088;-70
2022/01/22 08:21:46;;;;;;;15.77;8.70;;;;;;;-2.47;100.00;99233.09;1715889;81;21552;-70
2022/01/22 08:24:31;;;;;;;13.53;7.20;;;;;;;-2.28;100.00;99233.48;1715842;82;21069;-69
2022/01/22 08:27:22;;;;;;;17.73;7.13;;;;;;;-2.08;100.00;99240.47;1720073;83;21526;-69
2022/01/22 08:29:45;;;;;;;17.97;7.90;;;;;;;-2.06;100.00;99253.13;1716894;82;21038;-66
2022/01/22 08:37:46;;;;;;;17.77;8.07;;;;;;;-1.87;100.00;99280.48;1707216;83;21532;-70
2022/01/22 08:40:15;;;;;;;16.03;7.87;;;;;;;-1.82;100.00;99279.67;1707062;83;20980;-70
2022/01/22 08:42:45;;;;;;;14.90;7.80;;;;;;;-1.75;100.00;99291.52;1694489;83;21033;-70
2022/01/22 08:45:16;;;;;;;16.77;7.87;;;;;;;-1.78;100.00;99302.33;1720119;83;21013;-69
2022/01/22 08:47:44;;;;;;;18.50;8.77;;;;;;;-1.80;100.00;99308.23;1696075;83;21006;-71
2022/01/22 08:50:11;;;;;;;15.97;8.53;;;;;;;-1.71;100.00;99312.86;1719260;83;21078;-70
2022/01/22 08:52:39;;;;;;;19.30;8.50;;;;;;;-1.78;100.00;99312.45;1719615;82;21116;-69
2022/01/22 08:55:09;;;;;;;16.87;8.33;;;;;;;-1.92;100.00;99325.84;1716256;83;20983;-70
2022/01/22 08:57:38;;;;;;;12.10;7.03;;;;;;;-2.11;100.00;99325.84;1668030;85;21053;-69
2022/01/22 09:00:09;;;;;;;17.00;8.63;;;;;;;-2.30;100.00;99335.53;1776549;81;21006;-70
2022/01/22 09:02:38;;;;;;;15.67;8.23;;;;;;;-2.42;100.00;99333.73;1776400;79;21039;-69
2022/01/22 09:05:31;;;;;;;18.43;10.40;;;;;;;-2.45;100.00;99329.97;1779935;80;20994;-68
2022/01/22 09:07:56;;;;;;;13.00;6.90;;;;;;;-2.52;100.00;99320.76;1722420;82;21028;-70
2022/01/22 09:10:28;;;;;;;12.57;6.70;;;;;;;-2.62;100.00;99320.55;1680686;84;21037;-70
2022/01/22 09:13:12;;;;;;;13.27;7.33;;;;;;;-2.73;100.00;99325.23;1657284;85;21006;-70
2022/01/22 09:15:43;;;;;;;15.97;8.53;;;;;;;-2.77;100.00;99326.88;1657325;87;21062;-69
2022/01/22 09:18:11;;;;;;;15.03;7.77;;;;;;;-2.90;100.00;99325.06;1657139;85;21145;-69
2022/01/22 09:23:10;;;;;;;15.80;6.93;;;;;;;-3.01;100.00;99328.91;1646970;86;21577;-69
2022/01/22 09:25:37;;;;;;;13.47;7.13;;;;;;;-2.93;100.00;99316.48;1646850;87;21041;-69
2022/01/22 09:28:07;;;;;;;16.00;8.30;;;;;;;-2.92;100.00;99322.13;1647013;87;21030;-68
2022/01/22 09:30:35;;;;;;;18.63;10.47;;;;;;;-2.91;100.00;99314.58;1647001;87;21073;-69
2022/01/22 09:33:03;;;;;;;15.10;7.70;;;;;;;-2.94;100.00;99311.68;1646761;86;21049;-70
2022/01/22 09:35:49;;;;;;;16.67;7.33;;;;;;;-2.92;100.00;99309.77;1613769;87;21099;-69
2022/01/22 09:38:36;;;;;;;15.60;7.57;;;;;;;-3.05;100.00;99310.20;1613780;87;21129;-69
2022/01/22 09:41:08;;;;;;;17.17;7.67;;;;;;;-3.03;100.00;99296.88;1591260;89;21580;-70
2022/01/22 09:43:37;;;;;;;20.23;10.63;;;;;;;-2.98;100.00;99304.88;1562048;92;21098;-71
2022/01/22 09:46:07;;;;;;;22.20;9.87;;;;;;;-2.86;100.00;99297.92;1566185;92;21047;-70
2022/01/22 09:48:49;;;;;;;18.57;9.20;;;;;;;-2.73;100.00;99296.12;1512856;94;21089;-70
2022/01/22 09:51:21;;;;;;;21.30;9.28;;;;;;;-2.67;100.00;99296.20;1512736;93;21396;-69
2022/01/22 09:54:07;;;;;;;19.00;9.23;;;;;;;-2.57;100.00;99291.94;1515636;93;21101;-71
2022/01/22 09:56:37;;;;;;;17.57;7.70;;;;;;;-2.46;100.00;99291.23;1501618;94;21058;-70
2022/01/22 09:59:14;;;;;;;18.03;8.60;;;;;;;-2.25;100.00;99282.23;1473914;96;21134;-70
2022/01/22 10:02:13;;;;;;;16.30;7.83;;;;;;;-2.14;100.00;99294.26;1460099;97;21226;-69
2022/01/22 10:04:45;;;;;;;15.67;7.80;;;;;;;-2.09;100.00;99296.56;1418106;101;21153;-70
2022/01/22 10:07:20;;;;;;;19.30;8.40;;;;;;;-1.88;100.00;99286.72;1475181;96;21099;-67
2022/01/22 10:10:05;;;;;;;18.40;8.37;;;;;;;-1.77;100.00;99283.67;1466854;96;21112;-70
2022/01/22 10:12:47;;;;;;;17.73;8.27;;;;;;;-1.71;100.00;99291.66;1443333;98;21613;-69
2022/01/22 10:15:35;;;;;;;15.77;7.83;;;;;;;-1.68;100.00;99296.74;1382361;104;21153;-71
2022/01/22 10:18:03;;;;;;;16.70;7.80;;;;;;;-1.66;100.00;99288.69;1382665;104;21104;-70
2022/01/22 10:20:40;;;;;;;15.47;7.37;;;;;;;-1.72;100.00;99297.45;1344983;107;21173;-70
2022/01/22 10:23:22;;;;;;;15.17;7.83;;;;;;;-1.57;100.00;99302.09;1345475;107;21161;-69
2022/01/22 10:28:24;;;;;;;18.50;8.30;;;;;;;-1.24;100.00;99286.00;1280855;112;21712;-71
2022/01/22 10:30:59;;;;;;;14.73;7.60;;;;;;;-1.17;100.00;99292.99;1281114;112;21187;-70
2022/01/22 10:33:44;;;;;;;17.33;7.70;;;;;;;-1.24;100.00;99301.05;1282345;112;21175;-70
2022/01/22 10:36:30;;;;;;;17.90;8.23;;;;;;;-1.46;100.00;99308.43;1307361;109;21291;-70
2022/01/22 10:39:12;;;;;;;23.77;10.93;;;;;;;-1.67;100.00;99305.53;1300521;110;21190;-70
2022/01/22 10:41:42;;;;;;;20.23;9.93;;;;;;;-1.79;100.00;99296.20;1277314;112;21228;-71
2022/01/22 10:44:14;;;;;;;16.13;7.60;;;;;;;-1.91;100.00;99304.54;1275540;111;21197;-70
2022/01/22 10:46:46;;;;;;;26.70;11.37;;;;;;;-1.99;100.00;99298.09;1221297;118;21722;-70
2022/01/22 10:49:24;;;;;;;29.53;13.67;;;;;;;-2.10;100.00;99306.31;1221327;117;21205;-70
2022/01/22 10:52:00;;;;;;;30.97;14.53;;;;;;;-2.10;100.00;99309.45;1221308;116;21186;-70
2022/01/22 10:54:32;;;;;;;24.73;13.03;;;;;;;-2.08;100.00;99312.84;1254283;113;21245;-69
2022/01/22 10:57:23;;;;;;;16.57;8.73;;;;;;;-2.02;100.00;99302.28;1264699;113;21242;-70
2022/01/22 10:59:55;;;;;;;20.97;10.83;;;;;;;-2.01;100.00;99303.98;1241786;115;21297;-71
2022/01/22 11:02:36;;;;;;;17.20;9.00;;;;;;;-2.03;100.00;99303.25;1224413;116;21331;-70
2022/01/22 11:05:05;;;;;;;17.00;8.50;;;;;;;-2.02;100.00;99310.22;1237829;116;21192;-71
2022/01/22 11:07:32;;;;;;;24.23;11.30;;;;;;;-2.04;100.00;99305.52;1221101;117;21220;-70
2022/01/22 11:09:59;;;;;;;25.97;12.20;;;;;;;-2.11;100.00;99309.07;1256427;113;21206;-70
2022/01/22 11:12:26;;;;;;;25.13;11.43;;;;;;;-2.12;100.00;99304.75;1301529;109;21189;-70
2022/01/22 11:14:53;;;;;;;20.47;10.07;;;;;;;-2.11;100.00;99315.70;1319621;107;21176;-69
2022/01/22 11:17:24;;;;;;;24.50;11.77;;;;;;;-2.07;100.00;99308.37;1309642;110;21171;-70
2022/01/22 11:19:51;;;;;;;22.37;10.40;;;;;;;-2.11;100.00;99311.27;1309525;110;21248;-70
2022/01/22 11:22:19;;;;;;;16.67;8.00;;;;;;;-2.06;100.00;99314.06;1309523;110;21171;-72
2022/01/22 11:24:50;;;;;;;17.70;8.80;;;;;;;-2.04;100.00;99315.63;1329278;104;21713;-71
2022/01/22 11:27:20;;;;;;;21.37;10.20;;;;;;;-2.04;100.00;99315.63;1360439;106;21195;-69
2022/01/22 11:30:00;;;;;;;23.30;12.53;;;;;;;-2.05;100.00;99310.44;1413045;102;21125;-70
2022/01/22 11:32:32;;;;;;;17.37;8.53;;;;;;;-2.10;100.00;99317.41;1395501;102;21105;-69
2022/01/22 11:35:02;;;;;;;15.90;7.67;;;;;;;-2.14;100.00;99317.26;1433569;95;21032;-70
2022/01/22 11:37:51;;;;;;;16.33;7.90;;;;;;;-2.19;100.00;99324.19;1504679;90;21077;-70
2022/01/22 11:40:22;;;;;;;24.53;11.40;;;;;;;-2.25;100.00;99325.09;1586920;89;21108;-70
2022/01/22 11:43:13;;;;;;;18.33;8.60;;;;;;;-2.22;100.00;99319.10;1610379;86;21081;-69
2022/01/22 11:45:50;;;;;;;18.03;8.60;;;;;;;-2.17;100.00;99324.09;1666683;86;21529;-70
2022/01/22 11:48:25;;;;;;;19.13;8.80;;;;;;;-2.23;100.00;99330.67;1638212;86;21073;-70
2022/01/22 11:51:22;;;;;;;14.60;7.40;;;;;;;-2.21;100.00;99331.86;1722159;83;21177;-70
2022/01/22 11:54:00;;;;;;;20.13;8.97;;;;;;;-2.31;100.00;99324.56;1694467;83;21541;-69
2022/01/22 11:56:48;;;;;;;22.60;10.53;;;;;;;-2.42;100.00;99328.44;1714576;82;21033;-69
2022/01/22 11:59:29;;;;;;;19.57;8.53;;;;;;;-2.40;100.00;99324.37;1728491;82;21009;-71
2022/01/22 12:02:00;;;;;;;20.43;9.70;;;;;;;-2.43;100.00;99318.79;1721488;82;21089;-70
2022/01/22 12:04:29;;;;;;;22.53;10.63;;;;;;;-2.38;100.00;99320.64;1715686;82;21533;-71
2022/01/22 12:07:07;;;;;;;21.57;9.27;;;;;;;-2.38;100.00;99314.52;1700912;83;21065;-70
2022/01/22 12:15:39;;;;;;;17.20;7.73;;;;;;;-2.36;100.00;99315.25;1759205;80;21009;-72
2022/01/22 12:18:12;;;;;;;17.17;8.73;;;;;;;-2.34;100.00;99310.23;1759341;82;21014;-73
2022/01/22 12:23:35;;;;;;;17.87;8.38;;;;;;;-2.26;100.00;99315.47;1759022;82;21096;-70
2022/01/22 12:26:03;;;;;;;19.93;9.23;;;;;;;-2.26;100.00;99312.82;1759423;82;21016;-70
2022/01/22 12:28:49;;;;;;;20.47;9.40;;;;;;;-2.32;100.00;99312.29;1731734;82;20998;-69
2022/01/22 12:31:19;;;;;;;19.47;8.80;;;;;;;-2.31;100.00;99316.62;1759176;80;20985;-69
2022/01/22 12:33:53;;;;;;;19.10;9.65;;;;;;;-2.29;100.00;99313.86;1731543;82;21025;-69
2022/01/22 12:39:10;;;;;;;19.23;9.00;;;;;;;-2.28;100.00;99316.89;1672706;86;21093;-70
2022/01/22 12:44:18;;;;;;;19.53;9.20;;;;;;;-2.24;100.00;99318.37;1647625;87;21562;-70
2022/01/22 12:46:41;;;;;;;15.97;7.80;;;;;;;-2.18;100.00;99319.73;1644746;87;21055;-69
2022/01/22 12:49:09;;;;;;;19.03;8.90;;;;;;;-2.15;100.00;99310.25;1626580;87;21092;-70
2022/01/22 12:51:36;;;;;;;18.77;9.33;;;;;;;-2.15;100.00;99314.23;1648495;87;21008;-70
2022/01/22 12:54:05;;;;;;;21.47;10.30;;;;;;;-2.14;100.00;99313.28;1648427;86;21064;-70
2022/01/22 12:59:08;;;;;;;20.73;9.10;;;;;;;-2.12;100.00;99320.16;1589233;90;21104;-70
2022/01/22 13:01:38;;;;;;;19.67;9.40;;;;;;;-2.18;100.00;99316.63;1541162;93;21080;-70
2022/01/22 13:04:08;;;;;;;20.27;9.73;;;;;;;-2.16;100.00;99320.02;1550965;92;21081;-70
2022/01/22 13:06:45;;;;;;;21.37;9.93;;;;;;;-2.18;100.00;99317.95;1552036;92;21099;-70
2022/01/22 13:09:46;;;;;;;20.07;9.83;;;;;;;-2.19;100.00;99332.63;1552216;92;21187;-69
2022/01/22 13:12:14;;;;;;;25.50;12.13;;;;;;;-2.21;100.00;99326.56;1480149;97;21123;-70
2022/01/22 13:14:41;;;;;;;23.43;11.43;;;;;;;-2.23;100.00;99340.39;1480771;97;21625;-70
2022/01/22 13:17:13;;;;;;;20.83;9.30;;;;;;;-2.21;100.00;99336.70;1480842;96;22324;-70
2022/01/22 13:19:41;;;;;;;20.82;10.15;;;;;;;-2.15;100.00;99342.04;1481170;97;21107;-70